createdAt,value
2019-03-08T00:01:09.036Z,8.70
2019-03-08T00:03:39.405Z,8.70
2019-03-08T00:06:09.445Z,8.70
2019-03-08T00:08:39.559Z,8.70
2019-03-08T00:11:10.041Z,8.70
2019-03-08T00:13:40.115Z,8.60
2019-03-08T00:16:10.185Z,8.60
2019-03-08T00:18:40.268Z,8.70
2019-03-08T00:21:10.291Z,8.70
2019-03-08T00:23:40.839Z,8.70
2019-03-08T00:26:11.252Z,8.70
2019-03-08T00:28:41.516Z,8.70
2019-03-08T00:31:12.207Z,8.70
2019-03-08T00:33:42.227Z,8.70
2019-03-08T00:36:12.527Z,8.70
2019-03-08T00:38:42.547Z,8.70
2019-03-08T00:41:12.946Z,8.70
2019-03-08T00:43:43.188Z,8.70
2019-03-08T00:46:13.564Z,8.70
2019-03-08T00:48:43.593Z,8.70
2019-03-08T00:51:13.753Z,8.70
2019-03-08T00:53:44.087Z,8.70
2019-03-08T00:56:14.376Z,8.70
2019-03-08T00:58:44.750Z,8.70
2019-03-08T01:01:14.836Z,8.70
2019-03-08T01:03:45.587Z,8.60
2019-03-08T01:06:15.909Z,8.60
2019-03-08T01:08:46.300Z,8.60
2019-03-08T01:11:16.645Z,8.60
2019-03-08T01:13:46.721Z,8.60
2019-03-08T01:16:18.018Z,8.60
2019-03-08T01:18:48.037Z,8.50
2019-03-08T01:21:18.720Z,8.50
2019-03-08T01:23:49.308Z,8.50
2019-03-08T01:26:19.653Z,8.50
2019-03-08T01:28:49.955Z,8.50
2019-03-08T01:31:20.289Z,8.50
2019-03-08T01:33:50.596Z,8.50
2019-03-08T01:36:20.687Z,8.40
2019-03-08T01:38:51.092Z,8.40
2019-03-08T01:41:21.645Z,8.50
2019-03-08T01:43:51.940Z,8.50
2019-03-08T01:46:22.007Z,8.40
2019-03-08T01:48:52.022Z,8.40
2019-03-08T01:51:22.562Z,8.40
2019-03-08T01:53:52.844Z,8.40
2019-03-08T01:56:22.905Z,8.50
2019-03-08T01:58:52.931Z,8.40
2019-03-08T02:01:23.355Z,8.40
2019-03-08T02:03:53.752Z,8.50
2019-03-08T02:06:24.083Z,8.40
2019-03-08T02:08:54.116Z,8.40
2019-03-08T02:11:24.261Z,8.40
2019-03-08T02:13:54.520Z,8.40
2019-03-08T02:16:25.779Z,8.40
2019-03-08T02:18:56.064Z,8.30
2019-03-08T02:21:26.529Z,8.30
2019-03-08T02:23:56.545Z,8.30
2019-03-08T02:26:26.794Z,8.30
2019-03-08T02:28:57.264Z,8.40
2019-03-08T02:31:27.572Z,8.40
2019-03-08T02:33:58.068Z,8.40
2019-03-08T02:36:28.444Z,8.40
2019-03-08T02:38:58.493Z,8.40
2019-03-08T02:41:29.011Z,8.40
2019-03-08T02:43:59.028Z,8.50
2019-03-08T02:46:29.324Z,8.50
2019-03-08T02:48:59.640Z,8.50
2019-03-08T02:51:30.049Z,8.50
2019-03-08T02:54:00.500Z,8.50
2019-03-08T02:56:30.612Z,8.50
2019-03-08T02:59:01.428Z,8.50
2019-03-08T03:01:31.989Z,8.50
2019-03-08T03:04:02.274Z,8.50
2019-03-08T03:06:32.736Z,8.50
2019-03-08T03:09:03.856Z,8.50
2019-03-08T03:11:35.640Z,8.60
2019-03-08T03:14:05.716Z,8.50
2019-03-08T03:16:36.002Z,8.60
2019-03-08T03:19:06.688Z,8.60
2019-03-08T03:21:36.963Z,8.60
2019-03-08T03:24:07.901Z,8.60
2019-03-08T03:26:38.448Z,8.60
2019-03-08T03:29:08.524Z,8.70
2019-03-08T03:31:38.868Z,8.60
2019-03-08T03:34:09.556Z,8.70
2019-03-08T03:36:40.209Z,8.60
2019-03-08T03:39:10.277Z,8.60
2019-03-08T03:41:40.577Z,8.60
2019-03-08T03:44:11.617Z,8.70
2019-03-08T03:46:41.715Z,8.70
2019-03-08T03:49:11.809Z,8.60
2019-03-08T03:51:42.640Z,8.60
2019-03-08T03:54:12.972Z,8.60
2019-03-08T03:56:43.276Z,8.60
2019-03-08T03:59:13.409Z,8.60
2019-03-08T04:01:46.720Z,8.60
2019-03-08T04:04:16.818Z,8.60
2019-03-08T04:06:47.420Z,8.60
2019-03-08T04:09:17.665Z,8.60
2019-03-08T04:11:47.737Z,8.70
2019-03-08T04:14:17.980Z,8.70
2019-03-08T04:16:48.429Z,8.70
2019-03-08T04:19:18.724Z,8.70
2019-03-08T04:21:49.711Z,8.70
2019-03-08T04:24:20.396Z,8.80
2019-03-08T04:26:52.164Z,8.70
2019-03-08T04:29:22.627Z,8.70
2019-03-08T04:31:52.999Z,8.70
2019-03-08T04:34:23.217Z,8.70
2019-03-08T04:36:53.277Z,8.70
2019-03-08T04:39:23.427Z,8.70
2019-03-08T04:41:54.028Z,8.70
2019-03-08T04:44:24.633Z,8.70
2019-03-08T04:46:55.255Z,8.70
2019-03-08T04:49:25.390Z,8.70
2019-03-08T04:51:55.828Z,8.60
2019-03-08T04:54:26.389Z,8.60
2019-03-08T04:56:56.434Z,8.60
2019-03-08T04:59:26.521Z,8.60
2019-03-08T05:01:56.582Z,8.60
2019-03-08T05:04:26.968Z,8.60
2019-03-08T05:06:57.949Z,8.60
2019-03-08T05:09:28.116Z,8.60
2019-03-08T05:11:58.419Z,8.60
2019-03-08T05:14:28.459Z,8.50
2019-03-08T05:16:58.760Z,8.50
2019-03-08T05:19:29.424Z,8.60
2019-03-08T05:21:59.723Z,8.60
2019-03-08T05:24:30.965Z,8.60
2019-03-08T05:27:00.992Z,8.70
2019-03-08T05:29:31.287Z,8.70
2019-03-08T05:32:01.396Z,8.70
2019-03-08T05:34:31.552Z,8.70
2019-03-08T05:37:01.980Z,8.60
2019-03-08T05:39:32.190Z,8.60
2019-03-08T05:42:02.957Z,8.60
2019-03-08T05:44:33.604Z,8.60
2019-03-08T05:47:11.514Z,8.60
2019-03-08T05:49:43.504Z,8.70
2019-03-08T05:52:13.856Z,8.70
2019-03-08T05:54:43.953Z,8.80
2019-03-08T05:57:14.362Z,8.90
2019-03-08T05:59:45.539Z,8.90
2019-03-08T06:02:15.840Z,8.90
2019-03-08T06:04:45.917Z,8.90
2019-03-08T06:07:16.533Z,8.90
2019-03-08T06:09:46.607Z,8.90
2019-03-08T06:12:17.165Z,8.90
2019-03-08T06:14:47.301Z,9.00
2019-03-08T06:17:17.471Z,9.00
2019-03-08T06:19:47.579Z,9.00
2019-03-08T06:22:17.929Z,9.00
2019-03-08T06:24:48.264Z,9.10
2019-03-08T06:27:18.352Z,9.10
2019-03-08T06:29:48.624Z,9.20
2019-03-08T06:32:18.809Z,9.20
2019-03-08T06:34:49.599Z,9.20
2019-03-08T06:37:19.932Z,9.20
2019-03-08T06:39:50.400Z,9.30
2019-03-08T06:42:20.930Z,9.30
2019-03-08T06:44:51.608Z,9.40
2019-03-08T06:47:21.960Z,9.40
2019-03-08T06:49:53.449Z,9.50
2019-03-08T06:52:24.024Z,9.60
2019-03-08T06:54:54.703Z,9.60
2019-03-08T06:57:24.856Z,9.60
2019-03-08T06:59:59.463Z,9.60
2019-03-08T07:02:30.299Z,9.70
2019-03-08T07:05:01.288Z,9.70
2019-03-08T07:07:32.025Z,9.80
2019-03-08T07:10:04.202Z,9.80
2019-03-08T07:12:34.621Z,9.70
2019-03-08T07:15:05.646Z,9.70
2019-03-08T07:17:36.083Z,9.80
2019-03-08T07:20:25.478Z,9.80
2019-03-08T07:23:02.337Z,9.90
2019-03-08T07:26:04.103Z,9.90
2019-03-08T07:28:51.948Z,9.90
2019-03-08T07:31:40.404Z,10.00
2019-03-08T07:34:17.345Z,10.00
2019-03-08T07:36:56.434Z,9.90
2019-03-08T07:39:44.312Z,9.90
2019-03-08T07:42:48.665Z,9.90
2019-03-08T07:45:38.130Z,9.80
2019-03-08T07:48:13.792Z,9.80
2019-03-08T07:50:56.876Z,9.90
2019-03-08T07:53:46.357Z,9.80
2019-03-08T07:56:24.993Z,9.80
2019-03-08T07:59:07.000Z,9.80
2019-03-08T08:02:11.259Z,9.80
2019-03-08T08:05:06.849Z,9.80
2019-03-08T08:08:02.557Z,9.80
2019-03-08T08:10:50.764Z,9.70
2019-03-08T08:13:28.332Z,9.80
2019-03-08T08:16:07.132Z,9.80
2019-03-08T08:19:11.472Z,9.90
2019-03-08T08:21:59.209Z,9.80
2019-03-08T08:24:48.168Z,9.90
2019-03-08T08:27:40.811Z,9.80
2019-03-08T08:30:30.741Z,9.80
2019-03-08T08:33:35.721Z,9.80
2019-03-08T08:36:23.566Z,9.80
2019-03-08T08:39:20.074Z,9.90
2019-03-08T08:42:00.715Z,9.90
2019-03-08T08:44:38.327Z,10.00
2019-03-08T08:47:19.348Z,10.00
2019-03-08T08:50:01.217Z,10.10
2019-03-08T08:52:38.516Z,10.10
2019-03-08T08:55:46.225Z,10.10
2019-03-08T08:58:24.940Z,10.20
2019-03-08T09:01:07.888Z,10.30
2019-03-08T09:03:48.024Z,10.50
2019-03-08T09:06:28.824Z,10.50
2019-03-08T09:09:10.932Z,10.40
2019-03-08T09:12:03.078Z,10.40
2019-03-08T09:14:38.716Z,10.40
2019-03-08T09:17:14.987Z,10.40
2019-03-08T09:20:03.485Z,10.40
2019-03-08T09:22:55.727Z,10.50
2019-03-08T09:25:33.900Z,10.50
2019-03-08T09:28:11.216Z,10.40
2019-03-08T09:30:46.424Z,10.40
2019-03-08T09:33:25.277Z,10.30
2019-03-08T09:36:05.376Z,10.30
2019-03-08T09:39:01.259Z,10.40
2019-03-08T09:41:40.206Z,10.50
2019-03-08T09:44:28.939Z,10.60
2019-03-08T09:47:09.112Z,10.60
2019-03-08T09:50:01.328Z,10.70
2019-03-08T09:52:59.612Z,10.90
2019-03-08T09:55:50.173Z,10.70
2019-03-08T09:58:38.564Z,10.70
2019-03-08T10:01:27.058Z,10.40
2019-03-08T10:04:19.398Z,10.20
2019-03-08T10:07:17.788Z,10.00
2019-03-08T10:09:57.472Z,9.80
2019-03-08T10:12:49.945Z,9.60
2019-03-08T10:15:57.412Z,9.40
2019-03-08T10:18:49.112Z,9.40
2019-03-08T10:21:38.613Z,9.30
2019-03-08T10:24:19.089Z,9.30
2019-03-08T10:27:08.352Z,9.30
2019-03-08T10:29:54.488Z,9.40
2019-03-08T10:32:37.304Z,9.40
2019-03-08T10:35:35.799Z,9.50
2019-03-08T10:38:22.139Z,9.40
2019-03-08T10:41:00.196Z,9.10
2019-03-08T10:43:35.083Z,8.90
2019-03-08T10:46:36.478Z,8.90
2019-03-08T10:49:18.039Z,8.80
2019-03-08T10:52:17.538Z,8.90
2019-03-08T10:55:06.546Z,9.10
2019-03-08T10:58:14.872Z,9.20
2019-03-08T11:00:59.836Z,9.30
2019-03-08T11:03:48.992Z,9.40
2019-03-08T11:06:38.397Z,9.50
2019-03-08T11:09:49.352Z,9.60
2019-03-08T11:12:47.900Z,9.70
2019-03-08T11:15:49.573Z,9.60
2019-03-08T11:18:44.756Z,9.60
2019-03-08T11:21:34.387Z,9.90
2019-03-08T11:24:29.839Z,10.10
2019-03-08T11:27:19.324Z,10.10
2019-03-08T11:29:59.260Z,10.20
2019-03-08T11:32:48.457Z,10.10
2019-03-08T11:35:24.824Z,10.20
2019-03-08T11:38:09.612Z,10.00
2019-03-08T11:41:00.582Z,9.30
2019-03-08T11:43:46.349Z,7.60
2019-03-08T11:46:42.519Z,7.00
2019-03-08T11:49:42.679Z,6.90
2019-03-08T11:52:22.772Z,7.00
2019-03-08T11:55:19.644Z,7.20
2019-03-08T11:58:07.728Z,7.40
2019-03-08T12:01:06.061Z,7.60
2019-03-08T12:03:54.124Z,7.70
2019-03-08T12:06:34.928Z,7.90
2019-03-08T12:09:36.548Z,8.00
2019-03-08T12:12:26.594Z,8.20
2019-03-08T12:15:20.965Z,8.20
2019-03-08T12:18:19.076Z,8.20
2019-03-08T12:20:55.940Z,8.10
2019-03-08T12:23:35.568Z,8.10
2019-03-08T12:26:36.845Z,8.20
2019-03-08T12:29:34.120Z,8.00
2019-03-08T12:32:39.547Z,8.00
2019-03-08T12:35:27.783Z,8.00
2019-03-08T12:38:08.132Z,8.30
2019-03-08T12:40:57.037Z,8.60
2019-03-08T12:43:46.629Z,8.90
2019-03-08T12:46:24.514Z,9.20
2019-03-08T12:49:23.235Z,9.60
2019-03-08T12:52:02.035Z,9.60
2019-03-08T12:54:54.793Z,9.50
2019-03-08T12:57:43.004Z,9.30
2019-03-08T13:00:27.051Z,9.10
2019-03-08T13:03:22.539Z,9.20
2019-03-08T13:06:06.474Z,9.60
2019-03-08T13:08:47.721Z,10.00
2019-03-08T13:11:18.309Z,10.10
2019-03-08T13:13:48.578Z,10.00
2019-03-08T13:16:19.083Z,9.90
2019-03-08T13:18:49.498Z,9.60
2019-03-08T13:21:19.621Z,9.40
2019-03-08T13:23:50.730Z,8.80
2019-03-08T13:26:21.524Z,8.40
2019-03-08T13:28:51.832Z,8.20
2019-03-08T13:31:21.961Z,8.10
2019-03-08T13:33:54.145Z,8.10
2019-03-08T13:36:24.835Z,8.20
2019-03-08T13:38:55.802Z,8.30
2019-03-08T13:41:25.916Z,8.40
2019-03-08T13:43:56.077Z,8.70
2019-03-08T13:46:26.309Z,8.90
2019-03-08T13:48:56.520Z,9.00
2019-03-08T13:51:26.697Z,9.10
2019-03-08T13:53:57.209Z,9.10
2019-03-08T13:56:28.744Z,9.10
2019-03-08T13:59:03.151Z,9.00
2019-03-08T14:01:34.440Z,9.00
2019-03-08T14:04:04.965Z,9.10
2019-03-08T14:06:35.292Z,9.00
2019-03-08T14:09:07.716Z,9.10
2019-03-08T14:11:37.881Z,9.20
2019-03-08T14:14:08.084Z,9.20
2019-03-08T14:16:38.265Z,9.40
2019-03-08T14:19:08.593Z,9.50
2019-03-08T14:21:39.963Z,9.70
2019-03-08T14:24:10.378Z,9.70
2019-03-08T14:26:40.984Z,9.80
2019-03-08T14:29:11.817Z,9.70
2019-03-08T14:31:49.221Z,9.60
2019-03-08T14:34:19.666Z,9.60
2019-03-08T14:36:50.037Z,9.70
2019-03-08T14:39:20.393Z,9.70
2019-03-08T14:41:56.836Z,9.60
2019-03-08T14:44:45.444Z,9.30
2019-03-08T14:47:20.239Z,9.40
2019-03-08T14:49:51.418Z,9.30
2019-03-08T14:52:22.660Z,9.30
2019-03-08T14:54:53.348Z,9.30
2019-03-08T14:57:27.111Z,9.20
2019-03-08T14:59:56.759Z,9.20
2019-03-08T15:02:27.021Z,9.20
2019-03-08T15:04:57.278Z,9.20
2019-03-08T15:07:27.302Z,9.20
2019-03-08T15:09:57.835Z,9.20
2019-03-08T15:12:28.312Z,9.20
2019-03-08T15:14:58.760Z,9.30
2019-03-08T15:17:29.139Z,9.30
2019-03-08T15:19:59.368Z,9.40
2019-03-08T15:22:29.407Z,9.30
2019-03-08T15:24:59.784Z,9.30
2019-03-08T15:27:31.666Z,9.30
2019-03-08T15:30:01.796Z,9.40
2019-03-08T15:32:32.142Z,9.40
2019-03-08T15:35:02.642Z,9.50
2019-03-08T15:37:32.943Z,9.50
2019-03-08T15:40:03.820Z,9.50
2019-03-08T15:42:36.304Z,9.50
2019-03-08T15:45:07.283Z,9.50
2019-03-08T15:47:38.937Z,9.50
2019-03-08T15:50:11.324Z,9.60
2019-03-08T15:52:41.835Z,9.50
2019-03-08T15:55:12.161Z,9.40
2019-03-08T15:57:42.400Z,9.40
2019-03-08T16:00:17.260Z,9.40
2019-03-08T16:02:47.476Z,9.30
2019-03-08T16:05:19.543Z,9.30
2019-03-08T16:07:49.968Z,9.30
2019-03-08T16:10:20.226Z,9.30
2019-03-08T16:12:50.446Z,9.20
2019-03-08T16:15:20.970Z,9.20
2019-03-08T16:17:51.295Z,9.20
2019-03-08T16:20:21.426Z,9.20
2019-03-08T16:22:51.790Z,9.20
2019-03-08T16:25:21.912Z,9.20
2019-03-08T16:27:53.013Z,9.10
2019-03-08T16:30:27.932Z,9.00
2019-03-08T16:33:16.989Z,9.00
2019-03-08T16:36:22.926Z,8.90
2019-03-08T16:39:07.427Z,8.90
2019-03-08T16:42:01.121Z,8.70
2019-03-08T16:45:05.931Z,8.70
2019-03-08T16:47:58.722Z,8.70
2019-03-08T16:50:46.346Z,8.70
2019-03-08T16:53:46.235Z,8.60
2019-03-08T16:56:25.501Z,8.50
2019-03-08T16:59:05.950Z,8.40
2019-03-08T17:01:51.132Z,8.50
2019-03-08T17:04:30.517Z,8.40
2019-03-08T17:07:10.315Z,8.40
2019-03-08T17:09:47.477Z,8.30
2019-03-08T17:12:26.033Z,8.40
2019-03-08T17:15:06.685Z,8.30
2019-03-08T17:17:55.233Z,8.30
2019-03-08T17:20:48.395Z,8.30
2019-03-08T17:23:28.186Z,8.20
2019-03-08T17:26:16.312Z,8.20
2019-03-08T17:29:02.392Z,8.10
2019-03-08T17:31:38.740Z,8.10
2019-03-08T17:34:18.776Z,8.10
2019-03-08T17:36:57.922Z,8.00
2019-03-08T17:39:46.308Z,7.90
2019-03-08T17:42:35.575Z,7.90
2019-03-08T17:45:34.368Z,7.90
2019-03-08T17:48:18.339Z,7.80
2019-03-08T17:51:06.351Z,7.70
2019-03-08T17:53:54.572Z,7.70
2019-03-08T17:56:52.668Z,7.60
2019-03-08T17:59:41.920Z,7.70
2019-03-08T18:02:23.392Z,7.60
2019-03-08T18:05:06.440Z,7.60
2019-03-08T18:07:55.116Z,7.60
2019-03-08T18:10:38.018Z,7.50
2019-03-08T18:13:32.580Z,7.50
2019-03-08T18:16:07.957Z,7.50
2019-03-08T18:18:56.109Z,7.50
2019-03-08T18:21:40.704Z,7.50
2019-03-08T18:24:35.949Z,7.50
2019-03-08T18:27:19.972Z,7.50
2019-03-08T18:29:56.335Z,7.50
2019-03-08T18:32:45.251Z,7.50
2019-03-08T18:35:23.326Z,7.50
2019-03-08T18:38:12.521Z,7.40
2019-03-08T18:40:59.924Z,7.30
2019-03-08T18:43:40.976Z,7.20
2019-03-08T18:46:25.165Z,7.20
2019-03-08T18:49:08.100Z,7.10
2019-03-08T18:51:49.105Z,7.00
2019-03-08T18:54:38.713Z,6.80
2019-03-08T18:57:20.929Z,6.70
2019-03-08T19:00:20.673Z,6.60
2019-03-08T19:03:10.553Z,6.50
2019-03-08T19:05:52.981Z,6.40
2019-03-08T19:08:34.552Z,6.30
2019-03-08T19:11:28.281Z,6.20
2019-03-08T19:14:17.768Z,6.10
2019-03-08T19:17:07.121Z,5.90
2019-03-08T19:20:01.229Z,5.80
2019-03-08T19:22:37.101Z,5.80
2019-03-08T19:25:26.212Z,5.70
2019-03-08T19:28:03.426Z,5.70
2019-03-08T19:30:43.573Z,5.80
2019-03-08T19:33:27.717Z,5.80
2019-03-08T19:36:10.319Z,5.70
2019-03-08T19:38:46.669Z,5.70
2019-03-08T19:41:26.423Z,5.70
2019-03-08T19:44:14.941Z,5.60
2019-03-08T19:47:22.468Z,5.60
2019-03-08T19:50:26.702Z,5.60
2019-03-08T19:53:15.941Z,5.60
2019-03-08T19:56:05.320Z,5.60
2019-03-08T19:58:53.824Z,5.60
2019-03-08T20:01:42.514Z,5.60
2019-03-08T20:04:20.935Z,5.60
2019-03-08T20:07:00.445Z,5.50
2019-03-08T20:09:41.125Z,5.50
2019-03-08T20:12:30.593Z,5.50
2019-03-08T20:15:23.263Z,5.50
2019-03-08T20:17:58.964Z,5.40
2019-03-08T20:20:35.877Z,5.30
2019-03-08T20:23:27.493Z,5.20
2019-03-08T20:26:19.900Z,5.30
2019-03-08T20:29:04.548Z,5.20
2019-03-08T20:31:54.325Z,5.30
2019-03-08T20:34:36.788Z,5.30
2019-03-08T20:37:32.235Z,5.40
2019-03-08T20:40:31.869Z,5.40
2019-03-08T20:43:09.610Z,5.30
2019-03-08T20:46:06.161Z,5.30
2019-03-08T20:48:36.264Z,5.30
2019-03-08T20:51:06.833Z,5.40
2019-03-08T20:53:37.501Z,5.40
2019-03-08T20:56:07.909Z,5.40
2019-03-08T20:58:38.017Z,5.50
2019-03-08T21:01:08.444Z,5.50
2019-03-08T21:03:39.288Z,5.50
2019-03-08T21:06:09.691Z,5.50
2019-03-08T21:08:40.335Z,5.50
2019-03-08T21:11:10.960Z,5.50
2019-03-08T21:13:41.235Z,5.60
2019-03-08T21:16:11.697Z,5.60
2019-03-08T21:18:41.865Z,5.50
2019-03-08T21:21:12.492Z,5.50
2019-03-08T21:23:42.884Z,5.50
2019-03-08T21:26:13.143Z,5.50
2019-03-08T21:28:43.914Z,5.50
2019-03-08T21:31:14.918Z,5.40
2019-03-08T21:33:45.020Z,5.40
2019-03-08T21:36:15.167Z,5.40
2019-03-08T21:38:47.917Z,5.50
2019-03-08T21:41:18.048Z,5.50
2019-03-08T21:43:48.365Z,5.40
2019-03-08T21:46:18.492Z,5.40
2019-03-08T21:48:49.220Z,5.40
2019-03-08T21:51:19.380Z,5.30
2019-03-08T21:53:50.099Z,5.30
2019-03-08T21:56:20.973Z,5.30
2019-03-08T21:58:51.318Z,5.30
2019-03-08T22:01:21.669Z,5.20
2019-03-08T22:03:58.001Z,5.20
2019-03-08T22:06:28.192Z,5.10
2019-03-08T22:09:04.994Z,5.10
2019-03-08T22:11:39.483Z,5.00
2019-03-08T22:14:09.604Z,5.00
2019-03-08T22:16:39.709Z,4.90
2019-03-08T22:19:10.120Z,4.80
2019-03-08T22:21:40.236Z,4.80
2019-03-08T22:24:13.613Z,4.90
2019-03-08T22:26:42.548Z,4.90
2019-03-08T22:29:12.978Z,4.90
2019-03-08T22:31:43.392Z,4.90
2019-03-08T22:34:14.027Z,4.90
2019-03-08T22:36:44.889Z,4.90
2019-03-08T22:39:15.420Z,4.90
2019-03-08T22:41:45.847Z,4.80
2019-03-08T22:44:16.625Z,4.80
2019-03-08T22:46:47.198Z,4.80
2019-03-08T22:49:17.752Z,4.80
2019-03-08T22:51:48.091Z,4.80
2019-03-08T22:54:18.452Z,4.80
2019-03-08T22:56:48.584Z,4.90
2019-03-08T22:59:18.756Z,4.90
2019-03-08T23:01:54.047Z,4.80
2019-03-08T23:04:24.345Z,5.00
2019-03-08T23:06:54.456Z,5.00
2019-03-08T23:09:25.007Z,4.90
2019-03-08T23:11:55.872Z,4.90
2019-03-08T23:14:26.118Z,4.90
2019-03-08T23:16:56.523Z,4.90
2019-03-08T23:19:26.913Z,4.90
2019-03-08T23:25:30.632Z,4.80
2019-03-08T23:28:18.596Z,4.80
2019-03-08T23:30:50.126Z,4.80
2019-03-08T23:33:20.841Z,4.80
2019-03-08T23:35:50.858Z,4.80
2019-03-08T23:38:21.378Z,4.80
2019-03-08T23:40:51.655Z,4.80
2019-03-08T23:43:21.827Z,4.80
2019-03-08T23:45:52.872Z,4.80
2019-03-08T23:48:22.927Z,4.70
2019-03-08T23:50:53.078Z,4.80
2019-03-08T23:53:23.872Z,4.80
2019-03-08T23:55:54.332Z,4.80
2019-03-08T23:58:24.644Z,4.80
